KENV/ENV METAR and TAF weather

Enter ICAO airport designator
Station Type Date Time Source
KENV METAR 2022/11/30 09:56 UTC NOAA

KENV 300956Z AUTO 00000KT 10SM CLR M06/M12 A3008 RMK AO2 SLP221 T10611117 FZRANO PNO $


Station Type Date Time Source
KENV Decoded METAR 2022/11/30 09:56 UTC NOAA

Wendover / Air Force Auxillary Field, UT, United States (KENV) 40-44N 114-02W 1292M
Nov 30, 2022 - 04:56 AM EST / 2022.11.30 0956 UTC
Wind: Calm:0
Visibility: 10 mile(s):0
Sky conditions: clear
Temperature: 21.0 F (-6.1 C)
Dew Point: 10.9 F (-11.7 C)
Relative Humidity: 64%
Pressure (altimeter): 30.08 in. Hg (1018 hPa)
ob: KENV 300956Z AUTO 00000KT 10SM CLR M06/M12 A3008 RMK AO2 SLP221 T10611117 FZRANO PNO
cycle: 10

Station Type Date Time Source
KENV TAF 2022/11/30 06:27 UTC NOAA

TAF KENV 300524Z 3006/0106 VRB05KT P6SM FEW150
FM301800 09005KT P6SM SCT150 BKN250

Example: see airport list